createdAt,value
2023-03-17T00:00:02.529Z,0.00
2023-03-17T00:01:02.399Z,0.00
2023-03-17T00:02:02.387Z,0.00
2023-03-17T00:03:02.347Z,0.00
2023-03-17T00:04:02.363Z,0.00
2023-03-17T00:05:02.321Z,0.00
2023-03-17T00:06:02.303Z,0.00
2023-03-17T00:07:02.293Z,0.00
2023-03-17T00:08:02.319Z,0.00
2023-03-17T00:09:02.270Z,0.00
2023-03-17T00:10:02.248Z,0.00
2023-03-17T00:11:02.276Z,0.00
2023-03-17T00:12:02.222Z,0.00
2023-03-17T00:13:02.240Z,0.00
2023-03-17T00:14:02.213Z,0.00
2023-03-17T00:15:02.209Z,0.00
2023-03-17T00:16:02.238Z,0.00
2023-03-17T00:17:02.162Z,0.00
2023-03-17T00:18:02.180Z,0.00
2023-03-17T00:19:02.126Z,0.00
2023-03-17T00:20:02.136Z,0.00
2023-03-17T00:21:02.101Z,0.00
2023-03-17T00:22:02.105Z,0.00
2023-03-17T00:23:02.133Z,0.00
2023-03-17T00:24:02.086Z,0.00
2023-03-17T00:25:02.069Z,0.00
2023-03-17T00:26:02.052Z,0.00
2023-03-17T00:27:02.028Z,0.00
2023-03-17T00:28:02.048Z,0.00
2023-03-17T00:29:01.998Z,0.00
2023-03-17T00:30:02.005Z,0.00
2023-03-17T00:31:02.006Z,0.00
2023-03-17T00:32:01.966Z,0.00
2023-03-17T00:33:02.026Z,0.00
2023-03-17T00:34:01.944Z,0.00
2023-03-17T00:35:01.926Z,0.00
2023-03-17T00:36:01.997Z,0.00
2023-03-17T00:37:01.906Z,0.00
2023-03-17T00:38:02.195Z,0.00
2023-03-17T00:39:01.968Z,0.00
2023-03-17T00:40:01.872Z,0.00
2023-03-17T00:41:01.846Z,0.00
2023-03-17T00:42:01.855Z,0.00
2023-03-17T00:43:01.862Z,0.00
2023-03-17T00:44:01.818Z,0.00
2023-03-17T00:45:01.813Z,0.00
2023-03-17T00:46:01.784Z,0.00
2023-03-17T00:47:01.797Z,0.00
2023-03-17T00:48:01.789Z,0.00
2023-03-17T00:49:01.744Z,0.00
2023-03-17T00:50:01.731Z,0.00
2023-03-17T00:51:01.725Z,0.00
2023-03-17T00:52:01.711Z,0.00
2023-03-17T00:53:01.709Z,0.00
2023-03-17T00:54:01.670Z,0.00
2023-03-17T00:55:01.659Z,0.00
2023-03-17T00:56:01.641Z,0.00
2023-03-17T00:57:01.648Z,0.00
2023-03-17T00:58:01.653Z,0.00
2023-03-17T00:59:01.620Z,0.00
2023-03-17T01:00:01.591Z,0.00
2023-03-17T01:01:01.694Z,0.00
2023-03-17T01:02:01.617Z,0.00
2023-03-17T01:03:01.592Z,0.00
2023-03-17T01:04:01.548Z,0.00
2023-03-17T01:05:06.223Z,0.00
2023-03-17T01:06:02.508Z,0.00
2023-03-17T01:07:01.511Z,0.00
2023-03-17T01:08:01.518Z,0.00
2023-03-17T01:09:01.475Z,0.00
2023-03-17T01:10:01.530Z,0.00
2023-03-17T01:11:01.459Z,0.00
2023-03-17T01:12:01.449Z,0.00
2023-03-17T01:13:01.456Z,0.00
2023-03-17T01:14:01.423Z,0.00
2023-03-17T01:15:01.411Z,0.00
2023-03-17T01:16:01.451Z,0.00
2023-03-17T01:17:01.374Z,0.00
2023-03-17T01:18:01.403Z,0.00
2023-03-17T01:19:01.401Z,0.00
2023-03-17T01:20:01.426Z,0.00
2023-03-17T01:21:01.335Z,0.00
2023-03-17T01:22:01.305Z,0.00
2023-03-17T01:23:01.341Z,0.00
2023-03-17T01:24:01.282Z,0.00
2023-03-17T01:25:01.277Z,0.00
2023-03-17T01:26:01.414Z,0.00
2023-03-17T01:27:01.335Z,0.00
2023-03-17T01:28:04.055Z,0.00
2023-03-17T01:29:01.224Z,0.00
2023-03-17T01:30:01.214Z,0.00
2023-03-17T01:31:01.203Z,0.00
2023-03-17T01:32:01.178Z,0.00
2023-03-17T01:33:01.256Z,0.00
2023-03-17T01:34:01.187Z,0.00
2023-03-17T01:35:01.149Z,0.00
2023-03-17T01:36:01.191Z,0.00
2023-03-17T01:37:01.144Z,0.00
2023-03-17T01:38:01.130Z,0.00
2023-03-17T01:39:01.109Z,0.00
2023-03-17T01:40:01.080Z,0.00
2023-03-17T01:41:01.072Z,0.00
2023-03-17T01:42:01.062Z,0.00
2023-03-17T01:43:01.064Z,0.00
2023-03-17T01:44:01.013Z,0.00
2023-03-17T01:45:01.058Z,0.00
2023-03-17T01:46:01.051Z,0.00
2023-03-17T01:47:01.006Z,0.00
2023-03-17T01:48:01.016Z,0.00
2023-03-17T01:49:00.962Z,0.00
2023-03-17T01:50:00.942Z,0.00
2023-03-17T01:51:00.951Z,0.00
2023-03-17T01:52:00.993Z,0.00
2023-03-17T01:53:00.943Z,0.00
2023-03-17T01:54:00.896Z,0.00
2023-03-17T01:55:01.214Z,0.00
2023-03-17T01:56:01.145Z,0.00
2023-03-17T01:57:00.930Z,0.00
2023-03-17T01:58:01.171Z,0.00
2023-03-17T01:59:00.831Z,0.00
2023-03-17T02:00:00.820Z,0.00
2023-03-17T02:01:00.825Z,0.00
2023-03-17T02:02:00.800Z,0.00
2023-03-17T02:03:00.817Z,0.00
2023-03-17T02:04:00.788Z,0.00
2023-03-17T02:05:00.762Z,0.00
2023-03-17T02:06:00.732Z,0.00
2023-03-17T02:07:00.731Z,0.00
2023-03-17T02:08:00.750Z,0.00
2023-03-17T02:09:00.711Z,0.00
2023-03-17T02:10:00.685Z,0.00
2023-03-17T02:11:00.674Z,0.00
2023-03-17T02:12:00.665Z,0.00
2023-03-17T02:13:00.680Z,0.00
2023-03-17T02:14:01.341Z,0.00
2023-03-17T02:15:00.645Z,0.00
2023-03-17T02:16:00.605Z,0.00
2023-03-17T02:17:00.737Z,0.00
2023-03-17T02:18:00.650Z,0.00
2023-03-17T02:19:00.601Z,0.00
2023-03-17T02:20:00.564Z,0.00
2023-03-17T02:21:00.550Z,0.00
2023-03-17T02:22:00.545Z,0.00
2023-03-17T02:23:00.573Z,0.00
2023-03-17T02:24:00.516Z,0.00
2023-03-17T02:25:00.497Z,0.00
2023-03-17T02:26:00.652Z,0.00
2023-03-17T02:27:00.556Z,0.00
2023-03-17T02:28:00.508Z,0.00
2023-03-17T02:29:00.444Z,0.00
2023-03-17T02:30:00.442Z,0.00
2023-03-17T02:31:00.457Z,0.00
2023-03-17T02:32:00.387Z,0.00
2023-03-17T02:33:00.509Z,0.00
2023-03-17T02:34:00.370Z,0.00
2023-03-17T02:35:00.359Z,0.00
2023-03-17T02:36:00.380Z,0.00
2023-03-17T02:37:00.340Z,0.00
2023-03-17T02:38:00.378Z,0.00
2023-03-17T02:39:00.317Z,0.00
2023-03-17T02:40:00.301Z,0.00
2023-03-17T02:41:00.286Z,0.00
2023-03-17T02:42:00.269Z,0.00
2023-03-17T02:43:00.298Z,0.00
2023-03-17T02:44:00.247Z,0.00
2023-03-17T02:45:00.237Z,0.00
2023-03-17T02:46:00.230Z,0.00
2023-03-17T02:47:00.210Z,0.00
2023-03-17T02:48:00.266Z,0.00
2023-03-17T02:49:00.198Z,0.00
2023-03-17T02:50:00.362Z,0.00
2023-03-17T02:51:00.154Z,0.00
2023-03-17T02:52:00.149Z,0.00
2023-03-17T02:53:00.165Z,0.00
2023-03-17T02:54:00.454Z,0.00
2023-03-17T02:55:00.126Z,0.00
2023-03-17T02:56:00.103Z,0.00
2023-03-17T02:57:00.101Z,0.00
2023-03-17T02:58:00.096Z,0.00
2023-03-17T02:59:00.123Z,0.00
2023-03-17T03:00:00.047Z,0.00
2023-03-17T03:01:00.192Z,0.00
2023-03-17T03:02:00.032Z,0.00
2023-03-17T03:03:00.264Z,0.00
2023-03-17T03:04:00.051Z,0.00
2023-03-17T03:04:59.994Z,0.00
2023-03-17T03:06:02.116Z,0.00
2023-03-17T03:06:59.961Z,0.00
2023-03-17T03:07:59.964Z,0.00
2023-03-17T03:08:59.970Z,0.00
2023-03-17T03:09:59.929Z,0.00
2023-03-17T03:10:59.907Z,0.00
2023-03-17T03:11:59.889Z,0.00
2023-03-17T03:12:59.896Z,0.00
2023-03-17T03:13:59.896Z,0.00
2023-03-17T03:14:59.849Z,0.00
2023-03-17T03:15:59.882Z,0.00
2023-03-17T03:16:59.851Z,0.00
2023-03-17T03:17:59.817Z,0.00
2023-03-17T03:18:59.828Z,0.00
2023-03-17T03:19:59.789Z,0.00
2023-03-17T03:20:59.778Z,0.00
2023-03-17T03:21:59.854Z,0.00
2023-03-17T03:22:59.847Z,0.00
2023-03-17T03:23:59.763Z,0.00
2023-03-17T03:24:59.728Z,0.00
2023-03-17T03:25:59.739Z,0.00
2023-03-17T03:26:59.718Z,0.00
2023-03-17T03:27:59.691Z,0.00
2023-03-17T03:28:59.695Z,0.00
2023-03-17T03:29:59.657Z,0.00
2023-03-17T03:30:59.666Z,0.00
2023-03-17T03:32:00.344Z,0.00
2023-03-17T03:32:59.649Z,0.00
2023-03-17T03:33:59.637Z,0.00
2023-03-17T03:34:59.597Z,0.00
2023-03-17T03:35:59.614Z,0.00
2023-03-17T03:36:59.566Z,0.00
2023-03-17T03:37:59.548Z,0.00
2023-03-17T03:38:59.570Z,0.00
2023-03-17T03:39:59.529Z,0.00
2023-03-17T03:40:59.521Z,0.00
2023-03-17T03:41:59.514Z,0.00
2023-03-17T03:42:59.506Z,0.00
2023-03-17T03:43:59.504Z,0.00
2023-03-17T03:44:59.466Z,0.00
2023-03-17T03:45:59.443Z,0.00
2023-03-17T03:46:59.439Z,0.00
2023-03-17T03:47:59.420Z,0.00
2023-03-17T03:48:59.462Z,0.00
2023-03-17T03:49:59.392Z,0.00
2023-03-17T03:50:59.380Z,0.00
2023-03-17T03:51:59.532Z,0.00
2023-03-17T03:52:59.510Z,0.00
2023-03-17T03:53:59.559Z,0.00
2023-03-17T03:54:59.330Z,0.00
2023-03-17T03:55:59.325Z,0.00
2023-03-17T03:56:59.307Z,0.00
2023-03-17T03:57:59.279Z,0.00
2023-03-17T03:58:59.308Z,0.00
2023-03-17T03:59:59.256Z,0.00
2023-03-17T04:00:59.243Z,0.00
2023-03-17T04:01:59.227Z,0.00
2023-03-17T04:02:59.267Z,0.00
2023-03-17T04:03:59.247Z,0.00
2023-03-17T04:04:59.238Z,0.00
2023-03-17T04:05:59.182Z,0.00
2023-03-17T04:06:59.166Z,0.00
2023-03-17T04:07:59.156Z,0.00
2023-03-17T04:08:59.188Z,0.00
2023-03-17T04:09:59.950Z,0.00
2023-03-17T04:10:59.116Z,0.00
2023-03-17T04:11:59.097Z,0.00
2023-03-17T04:12:59.225Z,0.00
2023-03-17T04:13:59.250Z,0.00
2023-03-17T04:14:59.159Z,0.00
2023-03-17T04:15:59.121Z,0.00
2023-03-17T04:16:59.067Z,0.00
2023-03-17T04:17:59.032Z,0.00
2023-03-17T04:18:59.090Z,0.00
2023-03-17T04:19:58.993Z,0.00
2023-03-17T04:20:58.993Z,0.00
2023-03-17T04:21:58.970Z,0.00
2023-03-17T04:22:58.971Z,0.00
2023-03-17T04:23:58.983Z,0.00
2023-03-17T04:24:58.932Z,0.00
2023-03-17T04:25:59.017Z,0.00
2023-03-17T04:26:58.915Z,0.00
2023-03-17T04:27:58.884Z,0.00
2023-03-17T04:28:58.962Z,0.00
2023-03-17T04:29:58.862Z,0.00
2023-03-17T04:30:58.872Z,0.00
2023-03-17T04:31:58.938Z,0.00
2023-03-17T04:32:58.947Z,0.00
2023-03-17T04:33:58.846Z,0.00
2023-03-17T04:34:58.811Z,0.00
2023-03-17T04:35:58.824Z,0.00
2023-03-17T04:36:58.776Z,0.00
2023-03-17T04:37:58.770Z,0.00
2023-03-17T04:38:58.819Z,0.00
2023-03-17T04:39:58.804Z,0.00
2023-03-17T04:40:58.753Z,0.00
2023-03-17T04:41:58.727Z,0.00
2023-03-17T04:42:58.714Z,0.00
2023-03-17T04:43:58.721Z,0.00
2023-03-17T04:44:58.679Z,0.00
2023-03-17T04:45:58.757Z,0.00
2023-03-17T04:46:58.645Z,0.00
2023-03-17T04:47:58.637Z,0.00
2023-03-17T04:48:58.652Z,0.00
2023-03-17T04:49:58.628Z,0.00
2023-03-17T04:50:58.604Z,0.00
2023-03-17T04:51:58.581Z,0.00
2023-03-17T04:52:58.586Z,0.00
2023-03-17T04:53:58.585Z,0.00
2023-03-17T04:54:58.557Z,0.00
2023-03-17T04:55:58.640Z,0.00
2023-03-17T04:56:58.534Z,0.00
2023-03-17T04:57:58.501Z,0.00
2023-03-17T04:58:58.519Z,0.00
2023-03-17T04:59:58.469Z,0.00
2023-03-17T05:00:58.495Z,0.00
2023-03-17T05:01:58.488Z,0.00
2023-03-17T05:02:58.458Z,0.00
2023-03-17T05:03:58.468Z,0.00
2023-03-17T05:04:58.424Z,0.00
2023-03-17T05:05:58.367Z,1.00
2023-03-17T05:06:58.394Z,0.00
2023-03-17T05:07:58.330Z,1.00
2023-03-17T05:08:58.348Z,1.00
2023-03-17T05:09:58.299Z,1.00
2023-03-17T05:10:58.296Z,1.00
2023-03-17T05:11:58.279Z,2.00
2023-03-17T05:12:58.278Z,1.00
2023-03-17T05:13:58.288Z,1.00
2023-03-17T05:14:58.238Z,2.00
2023-03-17T05:15:58.209Z,3.00
2023-03-17T05:16:58.223Z,6.00
2023-03-17T05:17:58.191Z,7.00
2023-03-17T05:18:58.196Z,9.00
2023-03-17T05:19:58.208Z,8.00
2023-03-17T05:20:58.160Z,8.00
2023-03-17T05:21:58.140Z,13.00
2023-03-17T05:22:58.153Z,14.00
2023-03-17T05:23:58.114Z,17.00
2023-03-17T05:24:58.125Z,19.00
2023-03-17T05:25:58.086Z,20.00
2023-03-17T05:26:58.075Z,27.00
2023-03-17T05:27:58.064Z,31.00
2023-03-17T05:28:58.059Z,36.00
2023-03-17T05:29:58.061Z,39.00
2023-03-17T05:30:58.094Z,43.00
2023-03-17T05:31:58.005Z,47.00
2023-03-17T05:32:58.053Z,52.00
2023-03-17T05:33:58.003Z,56.00
2023-03-17T05:34:58.022Z,62.00
2023-03-17T05:35:57.999Z,68.00
2023-03-17T05:36:57.965Z,72.00
2023-03-17T05:37:57.931Z,78.00
2023-03-17T05:38:57.936Z,83.00
2023-03-17T05:39:57.952Z,91.00
2023-03-17T05:40:57.893Z,99.00
2023-03-17T05:41:57.894Z,108.00
2023-03-17T05:42:57.893Z,120.00
2023-03-17T05:43:57.853Z,125.00
2023-03-17T05:44:57.894Z,136.00
2023-03-17T05:45:57.884Z,143.00
2023-03-17T05:46:57.837Z,151.00
2023-03-17T05:47:57.800Z,157.00
2023-03-17T05:48:57.804Z,170.00
2023-03-17T05:49:57.830Z,177.00
2023-03-17T05:50:57.785Z,189.00
2023-03-17T05:51:57.751Z,203.00
2023-03-17T05:52:57.774Z,218.00
2023-03-17T05:53:57.720Z,232.00
2023-03-17T05:54:57.759Z,252.00
2023-03-17T05:55:57.704Z,269.00
2023-03-17T05:56:57.702Z,289.00
2023-03-17T05:57:57.681Z,311.00
2023-03-17T05:58:57.680Z,333.00
2023-03-17T05:59:57.692Z,356.00
2023-03-17T06:00:57.664Z,380.00
2023-03-17T06:01:57.699Z,410.00
2023-03-17T06:02:57.630Z,432.00
2023-03-17T06:03:57.672Z,452.00
2023-03-17T06:05:01.775Z,484.00
2023-03-17T06:05:57.726Z,511.00
2023-03-17T06:06:57.565Z,519.00
2023-03-17T06:07:57.562Z,525.00
2023-03-17T06:08:57.561Z,547.00
2023-03-17T06:09:57.557Z,556.00
2023-03-17T06:10:57.512Z,577.00
2023-03-17T06:11:57.502Z,591.00
2023-03-17T06:12:57.492Z,609.00
2023-03-17T06:13:57.481Z,597.00
2023-03-17T06:14:57.501Z,632.00
2023-03-17T06:15:57.509Z,688.00
2023-03-17T06:16:57.438Z,679.00
2023-03-17T06:17:57.432Z,693.00
2023-03-17T06:18:57.443Z,734.00
2023-03-17T06:19:57.422Z,743.00
2023-03-17T06:20:57.400Z,805.00
2023-03-17T06:21:57.370Z,820.00
2023-03-17T06:23:04.446Z,829.00
2023-03-17T06:23:59.227Z,798.00
2023-03-17T06:24:57.383Z,856.00
2023-03-17T06:25:57.311Z,869.00
2023-03-17T06:26:57.322Z,859.00
2023-03-17T06:27:57.314Z,822.00
2023-03-17T06:28:57.289Z,871.00
2023-03-17T06:29:57.298Z,949.00
2023-03-17T06:30:57.388Z,833.00
2023-03-17T06:32:01.507Z,923.00
2023-03-17T06:32:58.306Z,950.00
2023-03-17T06:33:57.221Z,861.00
2023-03-17T06:34:57.419Z,870.00
2023-03-17T06:35:57.253Z,962.00
2023-03-17T06:36:57.179Z,926.00
2023-03-17T06:37:57.162Z,854.00
2023-03-17T06:38:57.157Z,872.00
2023-03-17T06:39:57.174Z,904.00
2023-03-17T06:40:57.136Z,949.00
2023-03-17T06:41:57.115Z,939.00
2023-03-17T06:42:57.144Z,858.00
2023-03-17T06:43:57.078Z,877.00
2023-03-17T06:44:57.096Z,912.00
2023-03-17T06:45:57.080Z,935.00
2023-03-17T06:46:57.121Z,943.00
2023-03-17T06:47:57.057Z,991.00
2023-03-17T06:48:57.026Z,991.00
2023-03-17T06:49:57.041Z,1030.00
2023-03-17T06:50:57.005Z,1021.00
2023-03-17T06:51:56.988Z,1077.00
2023-03-17T06:52:56.979Z,1103.00
2023-03-17T06:53:56.955Z,1148.00
2023-03-17T06:54:56.973Z,1176.00
2023-03-17T06:55:56.964Z,1238.00
2023-03-17T06:56:56.927Z,1248.00
2023-03-17T06:57:56.934Z,1165.00
2023-03-17T06:58:56.910Z,1344.00
2023-03-17T06:59:56.912Z,1420.00
2023-03-17T07:00:56.953Z,1379.00
2023-03-17T07:01:56.900Z,1369.00
2023-03-17T07:02:56.927Z,1357.00
2023-03-17T07:03:56.845Z,1260.00
2023-03-17T07:04:56.882Z,1360.00
2023-03-17T07:05:56.809Z,1555.00
2023-03-17T07:06:56.808Z,1219.00
2023-03-17T07:07:56.775Z,1247.00
2023-03-17T07:08:56.766Z,1217.00
2023-03-17T07:09:57.414Z,1334.00
2023-03-17T07:10:56.741Z,1272.00
2023-03-17T07:11:56.749Z,1273.00
2023-03-17T07:12:56.728Z,1343.00
2023-03-17T07:13:56.698Z,1459.00
2023-03-17T07:14:56.710Z,1449.00
2023-03-17T07:15:58.525Z,1534.00
2023-03-17T07:16:56.678Z,1558.00
2023-03-17T07:17:56.667Z,1587.00
2023-03-17T07:18:56.632Z,1510.00
2023-03-17T07:19:56.658Z,1604.00
2023-03-17T07:20:56.617Z,1510.00
2023-03-17T07:21:56.595Z,1598.00
2023-03-17T07:22:56.581Z,1652.00
2023-03-17T07:23:56.702Z,1576.00
2023-03-17T07:24:56.704Z,1513.00
2023-03-17T07:25:56.768Z,1839.00
2023-03-17T07:26:56.572Z,1748.00
2023-03-17T07:27:56.626Z,1604.00
2023-03-17T07:28:56.541Z,1748.00
2023-03-17T07:29:56.522Z,1712.00
2023-03-17T07:30:56.498Z,1657.00
2023-03-17T07:31:57.249Z,1761.00
2023-03-17T07:32:56.530Z,1680.00
2023-03-17T07:33:57.400Z,1668.00
2023-03-17T07:34:56.509Z,1729.00
2023-03-17T07:35:56.511Z,1713.00
2023-03-17T07:36:56.444Z,1704.00
2023-03-17T07:37:56.452Z,1651.00
2023-03-17T07:38:56.524Z,1758.00
2023-03-17T07:39:56.499Z,1707.00
2023-03-17T07:40:56.447Z,1732.00
2023-03-17T07:41:56.956Z,1848.00
2023-03-17T07:42:56.394Z,1876.00
2023-03-17T07:43:56.762Z,1773.00
2023-03-17T07:44:56.403Z,1986.00
2023-03-17T07:45:58.248Z,1872.00
2023-03-17T07:46:56.359Z,1891.00
2023-03-17T07:47:56.364Z,2049.00
2023-03-17T07:48:56.947Z,1894.00
2023-03-17T07:49:56.527Z,1965.00
2023-03-17T07:50:56.446Z,1944.00
2023-03-17T07:51:56.370Z,1920.00
2023-03-17T07:52:56.348Z,1867.00
2023-03-17T07:53:56.902Z,1853.00
2023-03-17T07:54:56.252Z,1812.00
2023-03-17T07:55:56.185Z,1769.00
2023-03-17T07:56:56.182Z,1689.00
2023-03-17T07:57:56.270Z,1736.00
2023-03-17T07:58:56.233Z,1767.00
2023-03-17T07:59:56.198Z,1690.00
2023-03-17T08:00:56.177Z,1729.00
2023-03-17T08:01:56.141Z,1759.00
2023-03-17T08:03:09.313Z,1724.00
2023-03-17T08:03:57.186Z,1766.00
2023-03-17T08:04:56.157Z,1675.00
2023-03-17T08:05:56.126Z,1684.00
2023-03-17T08:06:56.104Z,1870.00
2023-03-17T08:07:56.039Z,1883.00
2023-03-17T08:08:56.103Z,1799.00
2023-03-17T08:09:56.102Z,1876.00
2023-03-17T08:10:56.071Z,1919.00
2023-03-17T08:11:56.004Z,2114.00
2023-03-17T08:12:56.133Z,1940.00
2023-03-17T08:13:55.975Z,2058.00
2023-03-17T08:14:55.975Z,1990.00
2023-03-17T08:15:56.005Z,2023.00
2023-03-17T08:16:56.007Z,2003.00
2023-03-17T08:17:55.852Z,2099.00
2023-03-17T08:18:55.895Z,2058.00
2023-03-17T08:19:55.894Z,2138.00
2023-03-17T08:20:55.933Z,1935.00
2023-03-17T08:21:55.827Z,2038.00
2023-03-17T08:22:55.827Z,2134.00
2023-03-17T08:23:55.772Z,2067.00
2023-03-17T08:24:55.927Z,2144.00
2023-03-17T08:25:55.776Z,2134.00
2023-03-17T08:26:55.760Z,2149.00
2023-03-17T08:27:55.730Z,2190.00
2023-03-17T08:28:55.725Z,2156.00
2023-03-17T08:29:55.699Z,2058.00
2023-03-17T08:30:55.790Z,2166.00
2023-03-17T08:31:55.713Z,2192.00
2023-03-17T08:32:55.729Z,2048.00
2023-03-17T08:33:55.664Z,2326.00
2023-03-17T08:34:55.634Z,2059.00
2023-03-17T08:35:55.693Z,2347.00
2023-03-17T08:36:55.751Z,2239.00
2023-03-17T08:37:56.276Z,2323.00
2023-03-17T08:38:55.581Z,2104.00
2023-03-17T08:39:55.573Z,2087.00
2023-03-17T08:40:55.582Z,2194.00
2023-03-17T08:41:55.616Z,2651.00
2023-03-17T08:42:55.531Z,2015.00
2023-03-17T08:43:55.508Z,1851.00
2023-03-17T08:44:55.513Z,2337.00
2023-03-17T08:45:55.543Z,2238.00
2023-03-17T08:46:55.494Z,2361.00
2023-03-17T08:47:55.460Z,2406.00
2023-03-17T08:48:55.454Z,2362.00
2023-03-17T08:49:55.433Z,2620.00
2023-03-17T08:50:55.452Z,2262.00
2023-03-17T08:51:55.403Z,2749.00
2023-03-17T08:52:55.393Z,2296.00
2023-03-17T08:53:55.393Z,3206.00
2023-03-17T08:54:55.382Z,2161.00
2023-03-17T08:55:55.383Z,2348.00
2023-03-17T08:56:55.371Z,2108.00
2023-03-17T08:57:55.328Z,2060.00
2023-03-17T08:58:55.328Z,2520.00
2023-03-17T08:59:55.305Z,2264.00
2023-03-17T09:00:55.368Z,2436.00
2023-03-17T09:01:55.346Z,3077.00
2023-03-17T09:02:55.492Z,2943.00
2023-03-17T09:03:55.370Z,1867.00
2023-03-17T09:04:55.253Z,2803.00
2023-03-17T09:05:55.411Z,1693.00
2023-03-17T09:07:03.374Z,2523.00
2023-03-17T09:07:56.556Z,2631.00
2023-03-17T09:08:55.468Z,2533.00
2023-03-17T09:09:55.172Z,2607.00
2023-03-17T09:10:55.492Z,2920.00
2023-03-17T09:11:55.276Z,2758.00
2023-03-17T09:12:55.154Z,2727.00
2023-03-17T09:13:55.406Z,2535.00
2023-03-17T09:14:55.245Z,2961.00
2023-03-17T09:15:55.797Z,2172.00
2023-03-17T09:16:55.283Z,2563.00
2023-03-17T09:17:56.046Z,2272.00
2023-03-17T09:18:55.238Z,2802.00
2023-03-17T09:19:55.263Z,2593.00
2023-03-17T09:20:55.222Z,3067.00
2023-03-17T09:21:55.010Z,2561.00
2023-03-17T09:22:55.008Z,2424.00
2023-03-17T09:23:54.983Z,2730.00
2023-03-17T09:24:54.978Z,2596.00
2023-03-17T09:25:54.992Z,2806.00
2023-03-17T09:26:55.355Z,2654.00
2023-03-17T09:27:54.941Z,2932.00
2023-03-17T09:28:54.930Z,2713.00
2023-03-17T09:29:54.906Z,2727.00
2023-03-17T09:30:54.930Z,3056.00
2023-03-17T09:31:54.885Z,2634.00
2023-03-17T09:32:54.932Z,2720.00
2023-03-17T09:33:54.862Z,2985.00
2023-03-17T09:34:54.834Z,2961.00
2023-03-17T09:35:54.889Z,2715.00
2023-03-17T09:36:54.809Z,2678.00
2023-03-17T09:37:54.805Z,2809.00
2023-03-17T09:38:54.801Z,2781.00
2023-03-17T09:39:54.805Z,2886.00
2023-03-17T09:40:54.831Z,2958.00
2023-03-17T09:41:54.822Z,3085.00
2023-03-17T09:42:54.806Z,2730.00
2023-03-17T09:43:54.714Z,3026.00
2023-03-17T09:44:54.691Z,3190.00
2023-03-17T09:45:54.763Z,3070.00
2023-03-17T09:46:54.746Z,3211.00
2023-03-17T09:47:54.678Z,2930.00
2023-03-17T09:48:54.698Z,3014.00
2023-03-17T09:49:54.638Z,3264.00
2023-03-17T09:50:54.642Z,3330.00
2023-03-17T09:51:54.611Z,3296.00
2023-03-17T09:52:54.591Z,3488.00
2023-03-17T09:53:54.581Z,3207.00
2023-03-17T09:54:54.574Z,3170.00
2023-03-17T09:55:54.590Z,3381.00
2023-03-17T09:56:54.537Z,3145.00
2023-03-17T09:57:54.532Z,3270.00
2023-03-17T09:58:54.532Z,3426.00
2023-03-17T09:59:54.542Z,3128.00
2023-03-17T10:00:54.526Z,3546.00
2023-03-17T10:01:54.482Z,3017.00
2023-03-17T10:02:54.462Z,3553.00
2023-03-17T10:03:54.595Z,3006.00
2023-03-17T10:04:54.451Z,2914.00
2023-03-17T10:05:54.451Z,3169.00
2023-03-17T10:06:54.455Z,2967.00
2023-03-17T10:07:54.417Z,3139.00
2023-03-17T10:08:54.394Z,2931.00
2023-03-17T10:09:54.567Z,3288.00
2023-03-17T10:10:54.395Z,3726.00
2023-03-17T10:11:54.341Z,2309.00
2023-03-17T10:12:54.329Z,3004.00
2023-03-17T10:13:54.322Z,1876.00
2023-03-17T10:14:54.297Z,2685.00
2023-03-17T10:15:54.350Z,3693.00
2023-03-17T10:16:54.290Z,1950.00
2023-03-17T10:17:54.280Z,1959.00
2023-03-17T10:18:54.253Z,2687.00
2023-03-17T10:19:54.262Z,3204.00
2023-03-17T10:20:54.268Z,3127.00
2023-03-17T10:21:54.215Z,3293.00
2023-03-17T10:22:54.320Z,3466.00
2023-03-17T10:23:54.172Z,3074.00
2023-03-17T10:24:54.180Z,3033.00
2023-03-17T10:25:54.193Z,3228.00
2023-03-17T10:26:54.148Z,2505.00
2023-03-17T10:27:54.132Z,2553.00
2023-03-17T10:28:54.356Z,2726.00
2023-03-17T10:29:54.121Z,2575.00
2023-03-17T10:30:54.123Z,2882.00
2023-03-17T10:31:56.231Z,2565.00
2023-03-17T10:32:54.084Z,3582.00
2023-03-17T10:33:54.056Z,1879.00
2023-03-17T10:34:54.035Z,2101.00
2023-03-17T10:35:54.073Z,2209.00
2023-03-17T10:36:54.030Z,2673.00
2023-03-17T10:38:08.011Z,2320.00
2023-03-17T10:38:54.982Z,2307.00
2023-03-17T10:39:53.975Z,1818.00
2023-03-17T10:40:53.998Z,2322.00
2023-03-17T10:41:53.945Z,2637.00
2023-03-17T10:42:53.938Z,3092.00
2023-03-17T10:43:53.923Z,2332.00
2023-03-17T10:44:53.910Z,2399.00
2023-03-17T10:45:54.763Z,2591.00
2023-03-17T10:46:53.910Z,2382.00
2023-03-17T10:47:53.865Z,3330.00
2023-03-17T10:48:53.877Z,2387.00
2023-03-17T10:49:53.854Z,2333.00
2023-03-17T10:50:54.394Z,2883.00
2023-03-17T10:51:54.004Z,2277.00
2023-03-17T10:52:57.136Z,2609.00
2023-03-17T10:53:54.546Z,3496.00
2023-03-17T10:54:53.776Z,1996.00
2023-03-17T10:55:53.793Z,3344.00
2023-03-17T10:56:54.431Z,2910.00
2023-03-17T10:57:53.741Z,2723.00
2023-03-17T10:58:53.726Z,2219.00
2023-03-17T10:59:53.749Z,2798.00
2023-03-17T11:00:53.772Z,3923.00
2023-03-17T11:01:53.678Z,1824.00
2023-03-17T11:02:53.670Z,2580.00
2023-03-17T11:03:53.704Z,3325.00
2023-03-17T11:04:53.666Z,2572.00
2023-03-17T11:05:53.654Z,3361.00
2023-03-17T11:06:53.614Z,3064.00
2023-03-17T11:07:53.599Z,2544.00
2023-03-17T11:08:53.616Z,3269.00
2023-03-17T11:09:53.596Z,2993.00
2023-03-17T11:10:53.605Z,2804.00
2023-03-17T11:11:53.570Z,2786.00
2023-03-17T11:12:53.531Z,2928.00
2023-03-17T11:13:53.648Z,3262.00
2023-03-17T11:14:53.709Z,3116.00
2023-03-17T11:15:53.508Z,3305.00
2023-03-17T11:16:53.507Z,2834.00
2023-03-17T11:17:53.500Z,2998.00
2023-03-17T11:18:53.541Z,3368.00
2023-03-17T11:19:53.619Z,3773.00
2023-03-17T11:20:53.736Z,3645.00
2023-03-17T11:21:53.515Z,3684.00
2023-03-17T11:22:53.453Z,4026.00
2023-03-17T11:23:53.519Z,3733.00
2023-03-17T11:24:53.377Z,4465.00
2023-03-17T11:25:53.382Z,3869.00
2023-03-17T11:26:53.412Z,3454.00
2023-03-17T11:27:53.842Z,3638.00
2023-03-17T11:28:53.325Z,3769.00
2023-03-17T11:29:53.328Z,4441.00
2023-03-17T11:30:53.318Z,4412.00
2023-03-17T11:31:53.340Z,3257.00
2023-03-17T11:32:53.334Z,4127.00
2023-03-17T11:33:53.263Z,4338.00
2023-03-17T11:34:53.262Z,3997.00
2023-03-17T11:35:53.318Z,3686.00
2023-03-17T11:36:55.226Z,3427.00
2023-03-17T11:37:53.227Z,3316.00
2023-03-17T11:38:53.202Z,3841.00
2023-03-17T11:39:53.355Z,3980.00
2023-03-17T11:40:53.165Z,3880.00
2023-03-17T11:41:53.185Z,3871.00
2023-03-17T11:42:54.039Z,3787.00
2023-03-17T11:43:53.136Z,3800.00
2023-03-17T11:44:53.117Z,3940.00
2023-03-17T11:45:53.213Z,4413.00
2023-03-17T11:46:53.276Z,3841.00
2023-03-17T11:47:53.092Z,3912.00
2023-03-17T11:48:53.073Z,4114.00
2023-03-17T11:49:53.116Z,4254.00
2023-03-17T11:50:53.038Z,4031.00
2023-03-17T11:51:53.072Z,4115.00
2023-03-17T11:52:53.028Z,5030.00
2023-03-17T11:53:53.025Z,3730.00
2023-03-17T11:54:54.273Z,4389.00
2023-03-17T11:55:52.983Z,3330.00
2023-03-17T11:56:53.002Z,4936.00
2023-03-17T11:57:52.957Z,4422.00
2023-03-17T11:58:52.950Z,4526.00
2023-03-17T11:59:52.933Z,4568.00
2023-03-17T12:00:52.902Z,4093.00
2023-03-17T12:01:53.033Z,4357.00
2023-03-17T12:05:37.526Z,4266.00
2023-03-17T12:06:37.509Z,4108.00
2023-03-17T12:07:37.478Z,4256.00
2023-03-17T12:08:37.456Z,4488.00
2023-03-17T12:09:37.467Z,4163.00
2023-03-17T12:10:37.438Z,5066.00
2023-03-17T12:11:37.455Z,3295.00
2023-03-17T12:12:37.408Z,4223.00
2023-03-17T12:13:37.398Z,4668.00
2023-03-17T12:14:37.388Z,4190.00
2023-03-17T12:15:37.386Z,4499.00
2023-03-17T12:16:37.392Z,3871.00
2023-03-17T12:17:37.346Z,4114.00
2023-03-17T12:18:37.383Z,4459.00
2023-03-17T12:19:37.333Z,4143.00
2023-03-17T12:20:37.308Z,4004.00
2023-03-17T12:21:37.336Z,3839.00
2023-03-17T12:22:37.307Z,3742.00
2023-03-17T12:23:37.274Z,3641.00
2023-03-17T12:24:37.256Z,3531.00
2023-03-17T12:25:37.275Z,3412.00
2023-03-17T12:26:37.309Z,3328.00
2023-03-17T12:27:37.243Z,3436.00
2023-03-17T12:28:37.258Z,3558.00
2023-03-17T12:29:37.327Z,3765.00
2023-03-17T12:30:37.194Z,4029.00
2023-03-17T12:31:37.251Z,4020.00
2023-03-17T12:32:37.203Z,3898.00
2023-03-17T12:33:37.190Z,3805.00
2023-03-17T12:34:37.129Z,3769.00
2023-03-17T12:35:37.184Z,3723.00
2023-03-17T12:36:37.129Z,3673.00
2023-03-17T12:37:37.102Z,3641.00
2023-03-17T12:38:37.099Z,3641.00
2023-03-17T12:39:37.081Z,3676.00
2023-03-17T12:40:37.050Z,3655.00